Time;durP1;ratioP1;P1;durP2;ratioP2;P2;SDS_P1;SDS_P2;PMS_P1;PMS_P2;Temp;Humidity;BMP_temperature;BMP_pressure;BME280_temperature;BME280_humidity;BME280_pressure;Samples;Min_cycle;Max_cycle;Signal;HPM_P1;HPM_P2
2023/09/12 00:00:36;;;;;;;26.20;15.88;;;19.80;99.90;;;;;;5059653;28;21352;-71
2023/09/12 00:03:01;;;;;;;32.63;18.17;;;19.90;99.90;;;;;;5065444;28;20093;-72
2023/09/12 00:05:29;;;;;;;27.98;15.45;;;19.80;99.90;;;;;;5078146;28;20024;-72
2023/09/12 00:07:55;;;;;;;24.60;16.45;;;19.80;99.90;;;;;;5068276;28;20040;-72
2023/09/12 00:10:21;;;;;;;27.17;15.98;;;19.80;99.90;;;;;;5061732;28;20052;-72
2023/09/12 00:12:47;;;;;;;25.73;16.52;;;19.80;99.90;;;;;;5057532;28;20486;-72
2023/09/12 00:15:12;;;;;;;;;;;19.80;99.90;;;;;;5058932;28;20040;-71
2023/09/12 00:17:38;;;;;;;27.42;16.17;;;19.80;99.90;;;;;;5051529;28;19923;-72
2023/09/12 00:20:06;;;;;;;29.13;16.55;;;19.70;99.90;;;;;;5060554;28;20044;-72
2023/09/12 00:22:35;;;;;;;26.27;16.65;;;19.80;99.90;;;;;;5062187;28;20131;-72
2023/09/12 00:25:00;;;;;;;28.13;16.15;;;19.80;99.90;;;;;;5059117;28;20147;-72
2023/09/12 00:27:26;;;;;;;29.55;17.10;;;19.80;99.90;;;;;;5056269;28;20097;-72
2023/09/12 00:29:51;;;;;;;25.35;15.93;;;19.70;99.90;;;;;;5056724;28;20374;-72
2023/09/12 00:32:17;;;;;;;27.23;15.98;;;19.70;99.90;;;;;;5056532;28;20494;-71
2023/09/12 00:34:43;;;;;;;27.75;16.30;;;19.70;99.90;;;;;;5080084;28;20036;-71
2023/09/12 00:37:09;;;;;;;27.38;15.73;;;19.70;99.90;;;;;;5060593;28;21142;-72
2023/09/12 00:39:37;;;;;;;;;;;19.70;99.90;;;;;;5059536;28;20050;-71
2023/09/12 00:42:03;;;;;;;30.90;17.15;;;19.70;99.90;;;;;;5055779;28;19961;-71
2023/09/12 00:44:29;;;;;;;26.73;15.95;;;19.60;99.90;;;;;;5046938;28;20056;-72
2023/09/12 00:46:55;;;;;;;26.52;16.02;;;19.60;99.90;;;;;;5043237;28;20044;-71
2023/09/12 00:49:22;;;;;;;27.75;16.00;;;19.60;99.90;;;;;;5052004;28;20040;-72
2023/09/12 00:51:50;;;;;;;26.15;16.13;;;19.60;99.90;;;;;;5073850;28;20457;-69
2023/09/12 00:54:15;;;;;;;31.92;18.55;;;19.60;99.90;;;;;;5058499;28;20133;-72
2023/09/12 00:56:42;;;;;;;23.52;16.55;;;19.60;99.90;;;;;;5062281;28;20135;-73
2023/09/12 00:59:08;;;;;;;25.90;15.68;;;19.60;99.90;;;;;;5079137;28;20502;-68
2023/09/12 01:01:35;;;;;;;28.20;16.05;;;19.60;99.90;;;;;;5049951;28;20127;-73
2023/09/12 01:04:02;;;;;;;28.90;17.30;;;19.50;99.90;;;;;;5052712;28;20043;-71
2023/09/12 01:06:29;;;;;;;27.10;16.05;;;19.50;99.90;;;;;;5061038;28;20277;-72
2023/09/12 01:08:55;;;;;;;32.25;18.25;;;19.50;99.90;;;;;;5041765;28;20055;-68
2023/09/12 01:11:24;;;;;;;;;;;19.50;99.90;;;;;;5068056;28;20085;-69
2023/09/12 01:13:49;;;;;;;29.40;17.45;;;19.50;99.90;;;;;;5059367;28;19919;-72
2023/09/12 01:16:15;;;;;;;28.40;17.52;;;19.50;99.90;;;;;;5066694;28;20044;-73
2023/09/12 01:18:42;;;;;;;31.00;18.20;;;19.50;99.90;;;;;;5074904;28;20109;-72
2023/09/12 01:21:26;;;;;;;30.17;18.15;;;19.50;99.90;;;;;;5054701;28;20040;-72
2023/09/12 01:24:12;;;;;;;27.52;16.88;;;19.50;99.90;;;;;;5057848;28;20052;-72
2023/09/12 01:26:52;;;;;;;34.83;18.83;;;19.50;99.90;;;;;;5080186;28;20366;-72
2023/09/12 01:29:20;;;;;;;33.10;18.52;;;19.50;99.90;;;;;;5067582;28;20105;-72
2023/09/12 01:31:48;;;;;;;28.60;16.67;;;19.50;99.90;;;;;;5058031;28;20107;-72
2023/09/12 01:34:14;;;;;;;28.92;17.65;;;19.50;99.90;;;;;;5059994;28;20040;-72
2023/09/12 01:36:44;;;;;;;29.92;16.92;;;19.50;99.90;;;;;;5059900;28;20218;-72
2023/09/12 01:39:10;;;;;;;28.20;16.67;;;19.50;99.90;;;;;;5052696;28;20063;-73
2023/09/12 01:41:42;;;;;;;;;;;19.50;99.90;;;;;;5071749;28;20094;-72
2023/09/12 01:44:10;;;;;;;28.15;16.77;;;19.50;99.90;;;;;;5056903;28;20093;-72
2023/09/12 01:46:37;;;;;;;29.15;16.30;;;19.40;99.90;;;;;;5053823;28;20051;-72
2023/09/12 01:49:08;;;;;;;26.33;15.57;;;19.40;99.90;;;;;;5053758;28;20055;-72
2023/09/12 01:51:34;;;;;;;28.30;17.08;;;19.40;99.90;;;;;;5073110;28;20032;-73
2023/09/12 01:54:03;;;;;;;28.33;16.20;;;19.40;99.90;;;;;;5054938;28;20256;-73
2023/09/12 01:56:29;;;;;;;28.52;15.80;;;19.40;99.90;;;;;;5069453;28;20102;-72
2023/09/12 01:58:56;;;;;;;24.45;15.60;;;19.30;99.90;;;;;;5053186;28;20071;-73
2023/09/12 02:01:21;;;;;;;29.60;16.70;;;19.30;99.90;;;;;;5061586;28;20066;-73
2023/09/12 02:03:47;;;;;;;27.63;17.63;;;19.30;99.90;;;;;;5061786;28;20123;-72
2023/09/12 02:06:13;;;;;;;24.85;16.70;;;19.30;99.90;;;;;;5051235;28;20056;-73
2023/09/12 02:08:38;;;;;;;26.75;16.88;;;19.30;99.90;;;;;;5072321;28;20275;-73
2023/09/12 02:11:09;;;;;;;27.77;17.40;;;19.30;99.90;;;;;;5051029;28;20460;-72
2023/09/12 02:13:35;;;;;;;26.17;15.40;;;19.20;99.90;;;;;;5078189;28;20040;-72
2023/09/12 02:16:04;;;;;;;32.88;17.23;;;19.20;99.90;;;;;;5076940;28;20047;-73
2023/09/12 02:18:32;;;;;;;26.38;16.88;;;19.10;99.90;;;;;;5071939;28;20046;-72
2023/09/12 02:21:01;;;;;;;31.67;18.23;;;19.10;99.90;;;;;;5058063;28;20043;-72
2023/09/12 02:23:26;;;;;;;30.85;17.33;;;19.10;99.90;;;;;;5057318;28;20044;-73
2023/09/12 02:25:52;;;;;;;32.22;17.67;;;19.10;99.90;;;;;;5053806;28;20094;-73
2023/09/12 02:28:18;;;;;;;28.08;16.55;;;19.10;99.90;;;;;;5052719;28;20046;-73
2023/09/12 02:30:44;;;;;;;25.92;16.20;;;19.10;99.90;;;;;;5064044;28;20047;-73
2023/09/12 02:33:12;;;;;;;26.80;16.40;;;19.00;99.90;;;;;;5058333;28;20094;-72
2023/09/12 02:35:38;;;;;;;28.02;17.77;;;19.00;99.90;;;;;;5068365;28;20441;-72
2023/09/12 02:38:03;;;;;;;30.70;17.98;;;19.00;99.90;;;;;;5075059;28;20055;-73
2023/09/12 02:40:29;;;;;;;28.98;17.30;;;19.00;99.90;;;;;;5061738;28;20105;-72
2023/09/12 02:42:57;;;;;;;31.08;18.00;;;18.90;99.90;;;;;;5052387;28;20054;-72
2023/09/12 02:45:23;;;;;;;33.65;17.52;;;18.90;99.90;;;;;;5079659;28;20575;-72
2023/09/12 02:47:48;;;;;;;25.27;16.95;;;18.90;99.90;;;;;;5057562;28;20246;-73
2023/09/12 02:50:17;;;;;;;28.40;15.85;;;18.90;99.90;;;;;;5054814;28;20044;-73
2023/09/12 02:52:42;;;;;;;24.38;15.15;;;18.90;99.90;;;;;;5062161;28;20130;-73
2023/09/12 02:55:08;;;;;;;22.85;14.65;;;18.80;99.90;;;;;;5072049;28;20128;-73
2023/09/12 02:57:34;;;;;;;25.08;14.65;;;18.80;99.90;;;;;;5060031;28;20036;-73
2023/09/12 03:00:00;;;;;;;41.20;17.27;;;18.80;99.90;;;;;;5060777;28;20044;-72
2023/09/12 03:02:29;;;;;;;26.40;16.20;;;18.70;99.90;;;;;;5075201;28;20164;-72
2023/09/12 03:04:55;;;;;;;27.65;15.38;;;18.70;99.90;;;;;;5062170;28;20093;-72
2023/09/12 03:07:20;;;;;;;28.17;14.18;;;18.70;99.90;;;;;;5074431;28;20108;-73
2023/09/12 03:09:52;;;;;;;20.77;13.77;;;18.60;99.90;;;;;;5055317;28;20048;-73
2023/09/12 03:12:18;;;;;;;25.25;13.32;;;18.60;99.90;;;;;;5038703;28;20112;-72
2023/09/12 03:14:44;;;;;;;23.08;13.70;;;18.60;99.90;;;;;;5058527;28;20044;-72
2023/09/12 03:17:10;;;;;;;23.33;13.88;;;18.60;99.90;;;;;;5054304;28;20548;-73
2023/09/12 03:19:41;;;;;;;19.40;12.95;;;18.50;99.90;;;;;;5090688;22;20047;-67
2023/09/12 03:22:06;;;;;;;19.25;13.25;;;18.40;99.90;;;;;;5046729;28;20967;-66
2023/09/12 03:24:32;;;;;;;18.13;12.02;;;18.40;99.90;;;;;;5046159;28;20032;-66
2023/09/12 03:26:58;;;;;;;21.92;11.70;;;18.40;99.90;;;;;;5063626;28;20051;-66
2023/09/12 03:29:23;;;;;;;23.27;12.23;;;18.30;99.90;;;;;;5044276;28;20036;-66
2023/09/12 03:31:49;;;;;;;18.65;12.10;;;18.30;99.90;;;;;;5043701;28;20049;-67
2023/09/12 03:34:15;;;;;;;19.65;12.07;;;18.20;99.90;;;;;;5046362;28;20107;-67
2023/09/12 03:36:43;;;;;;;20.50;13.32;;;18.20;99.90;;;;;;5045443;28;20408;-67
2023/09/12 03:39:13;;;;;;;20.83;11.50;;;18.10;99.90;;;;;;5043733;28;20050;-69
2023/09/12 03:41:39;;;;;;;22.80;13.30;;;18.10;99.90;;;;;;5043614;28;20052;-67
2023/09/12 03:44:06;;;;;;;18.98;12.57;;;18.10;99.90;;;;;;5038605;28;20523;-67
2023/09/12 03:46:32;;;;;;;18.30;12.35;;;18.10;99.90;;;;;;5041530;28;20048;-67
2023/09/12 03:48:57;;;;;;;25.52;12.05;;;18.10;99.90;;;;;;5061164;28;20032;-67
2023/09/12 03:51:23;;;;;;;21.17;13.77;;;18.10;99.90;;;;;;5044720;28;20041;-67
2023/09/12 03:53:49;;;;;;;22.05;12.45;;;18.10;99.90;;;;;;5045796;28;20048;-67
2023/09/12 03:56:16;;;;;;;25.27;13.48;;;18.10;99.90;;;;;;5054881;28;20071;-67
2023/09/12 03:58:42;;;;;;;22.67;13.02;;;18.10;99.90;;;;;;5045984;28;20102;-67
2023/09/12 04:01:17;;;;;;;23.23;13.90;;;18.10;99.90;;;;;;5063266;28;20044;-67
2023/09/12 04:03:44;;;;;;;22.15;13.93;;;18.10;99.90;;;;;;5064033;28;20090;-66
2023/09/12 04:06:10;;;;;;;24.63;15.15;;;18.10;99.90;;;;;;5065501;28;20045;-66
2023/09/12 04:08:35;;;;;;;28.33;16.23;;;18.10;99.90;;;;;;5054051;28;20450;-67
2023/09/12 04:11:01;;;;;;;25.50;14.98;;;18.10;99.90;;;;;;5038333;28;20245;-67
2023/09/12 04:13:30;;;;;;;24.88;15.23;;;18.10;99.90;;;;;;5059445;28;20048;-67
2023/09/12 04:15:56;;;;;;;28.70;16.85;;;18.10;99.90;;;;;;5060864;28;20055;-67
2023/09/12 04:18:22;;;;;;;27.67;15.32;;;18.10;99.90;;;;;;5062540;28;20052;-67
2023/09/12 04:20:47;;;;;;;28.05;16.30;;;18.10;99.90;;;;;;5063369;28;20072;-67
2023/09/12 04:23:13;;;;;;;25.15;14.90;;;18.10;99.90;;;;;;5065301;28;20213;-67
2023/09/12 04:25:43;;;;;;;27.40;16.13;;;18.20;99.90;;;;;;5060201;28;20556;-66
2023/09/12 04:28:11;;;;;;;28.42;17.10;;;18.20;99.90;;;;;;5061780;28;20119;-66
2023/09/12 04:30:42;;;;;;;26.92;16.20;;;18.20;99.90;;;;;;5059583;28;20119;-67
2023/09/12 04:33:08;;;;;;;26.70;17.25;;;18.20;99.90;;;;;;5061289;28;20049;-67
2023/09/12 04:35:34;;;;;;;31.48;16.08;;;18.20;99.90;;;;;;5064827;28;20557;-67
2023/09/12 04:38:00;;;;;;;;;;;18.20;99.90;;;;;;5066428;28;20490;-66
2023/09/12 04:40:26;;;;;;;26.92;15.80;;;18.20;99.90;;;;;;5049408;28;19927;-69
2023/09/12 04:42:52;;;;;;;30.98;17.20;;;18.20;99.90;;;;;;5048701;28;20456;-67
2023/09/12 04:45:23;;;;;;;29.35;17.65;;;18.20;99.90;;;;;;5067123;28;20044;-67
2023/09/12 04:47:48;;;;;;;33.05;18.00;;;18.20;99.90;;;;;;5067644;28;20052;-67
2023/09/12 04:50:14;;;;;;;34.72;18.38;;;18.20;99.90;;;;;;5066578;28;20029;-66
2023/09/12 04:52:43;;;;;;;35.10;18.00;;;18.20;99.90;;;;;;5049347;28;20442;-68
2023/09/12 04:55:08;;;;;;;38.20;18.05;;;18.20;99.90;;;;;;5043208;28;20028;-67
2023/09/12 04:57:34;;;;;;;36.78;18.33;;;18.20;99.90;;;;;;5064109;28;20100;-68
2023/09/12 05:00:00;;;;;;;32.97;17.73;;;18.20;99.90;;;;;;5049597;28;20049;-68
2023/09/12 05:02:26;;;;;;;32.38;16.65;;;18.20;99.90;;;;;;5051830;28;20059;-68
2023/09/12 05:04:52;;;;;;;38.28;19.13;;;18.20;99.90;;;;;;5063646;28;20052;-68
2023/09/12 05:07:18;;;;;;;33.35;18.75;;;18.20;99.90;;;;;;5063360;28;20046;-68
2023/09/12 05:09:43;;;;;;;39.75;18.45;;;18.20;99.90;;;;;;5032704;28;20037;-68
2023/09/12 05:12:09;;;;;;;32.78;18.25;;;18.20;99.90;;;;;;5064101;28;20407;-68
2023/09/12 05:14:38;;;;;;;32.08;18.73;;;18.20;99.90;;;;;;5064860;28;20040;-69
2023/09/12 05:17:06;;;;;;;33.22;17.35;;;18.20;99.90;;;;;;5061861;28;20109;-66
2023/09/12 05:19:32;;;;;;;31.08;17.52;;;18.20;99.90;;;;;;5062038;28;20441;-67
2023/09/12 05:21:58;;;;;;;30.80;17.85;;;18.20;99.90;;;;;;5058849;28;20036;-67
2023/09/12 05:24:23;;;;;;;30.60;16.98;;;18.20;99.90;;;;;;5040997;28;20040;-67
2023/09/12 05:26:49;;;;;;;32.20;18.30;;;18.10;99.90;;;;;;5062572;28;20516;-67
2023/09/12 05:29:15;;;;;;;28.00;16.80;;;18.20;99.90;;;;;;5046897;28;20075;-67
2023/09/12 05:31:41;;;;;;;31.17;17.00;;;18.10;99.90;;;;;;5042629;28;20048;-67
2023/09/12 05:34:09;;;;;;;30.65;17.85;;;18.10;99.90;;;;;;5060361;28;20044;-67
2023/09/12 05:36:37;;;;;;;29.30;17.50;;;18.10;99.90;;;;;;5047914;28;20048;-67
2023/09/12 05:39:03;;;;;;;30.35;16.85;;;18.20;99.90;;;;;;5061924;28;20033;-67
2023/09/12 05:41:31;;;;;;;30.10;18.20;;;18.20;99.90;;;;;;5049137;28;20121;-67
2023/09/12 05:44:00;;;;;;;32.20;18.20;;;18.20;99.90;;;;;;5048937;28;20100;-67
2023/09/12 05:46:25;;;;;;;35.17;18.73;;;18.20;99.90;;;;;;5064531;28;20044;-67
2023/09/12 05:48:51;;;;;;;31.42;16.60;;;18.20;99.90;;;;;;5065074;28;20041;-67
2023/09/12 05:51:17;;;;;;;32.13;17.25;;;18.20;99.90;;;;;;5029499;28;20051;-67
2023/09/12 05:53:42;;;;;;;32.60;17.70;;;18.20;99.90;;;;;;5065871;28;20044;-67
2023/09/12 05:56:08;;;;;;;39.13;18.15;;;18.20;99.90;;;;;;5046039;28;20509;-67
2023/09/12 05:58:35;;;;;;;36.92;17.13;;;18.20;99.90;;;;;;5064843;28;20040;-67
2023/09/12 06:01:04;;;;;;;36.17;18.48;;;18.30;99.90;;;;;;5063131;28;20137;-67
2023/09/12 06:03:29;;;;;;;35.38;18.15;;;18.20;99.90;;;;;;5046723;28;20136;-67
2023/09/12 06:05:55;;;;;;;39.42;20.17;;;18.20;99.90;;;;;;5050387;28;20058;-67
2023/09/12 06:08:21;;;;;;;36.15;18.55;;;18.10;99.90;;;;;;5044461;28;20037;-67
2023/09/12 06:10:48;;;;;;;37.20;18.42;;;18.10;99.90;;;;;;5047734;28;20048;-67
2023/09/12 06:13:14;;;;;;;32.80;18.55;;;18.10;99.90;;;;;;5046719;28;20071;-69
2023/09/12 06:15:41;;;;;;;36.67;19.55;;;18.10;99.90;;;;;;5046735;28;20040;-68
2023/09/12 06:18:06;;;;;;;32.13;18.45;;;18.20;99.90;;;;;;5060796;28;20051;-67
2023/09/12 06:20:35;;;;;;;34.70;19.98;;;18.20;99.90;;;;;;5046727;28;20123;-67
2023/09/12 06:23:05;;;;;;;36.22;19.75;;;18.20;99.90;;;;;;5047029;28;20056;-68
2023/09/12 06:25:36;;;;;;;41.08;20.52;;;18.20;99.90;;;;;;5065127;28;20394;-67
2023/09/12 06:28:02;;;;;;;36.92;19.58;;;18.30;99.90;;;;;;5063556;28;20116;-67
2023/09/12 06:30:27;;;;;;;35.17;18.65;;;18.30;99.90;;;;;;5063770;28;20454;-67
2023/09/12 06:32:53;;;;;;;40.28;20.98;;;18.30;99.90;;;;;;5064995;28;20121;-68
2023/09/12 06:35:23;;;;;;;42.20;20.60;;;18.30;99.90;;;;;;5061254;28;20036;-68
2023/09/12 06:37:49;;;;;;;38.83;20.02;;;18.40;99.90;;;;;;5048665;28;20048;-68
2023/09/12 06:40:17;;;;;;;43.08;20.20;;;18.40;99.90;;;;;;5046110;28;20115;-68
2023/09/12 06:42:46;;;;;;;41.58;20.63;;;18.40;99.90;;;;;;5041483;28;20036;-68
2023/09/12 06:45:12;;;;;;;38.30;19.98;;;18.40;99.90;;;;;;5036379;28;20144;-68
2023/09/12 06:47:37;;;;;;;41.35;20.98;;;18.50;99.90;;;;;;5059280;28;20147;-68
2023/09/12 06:50:06;;;;;;;45.30;22.55;;;18.50;99.90;;;;;;5061102;28;20051;-67
2023/09/12 06:52:31;;;;;;;47.80;23.05;;;18.50;99.90;;;;;;5061877;28;20037;-67
2023/09/12 06:54:57;;;;;;;45.65;21.48;;;18.50;99.90;;;;;;5040558;28;20041;-68
2023/09/12 06:57:23;;;;;;;46.35;21.35;;;18.60;99.90;;;;;;5042501;28;20559;-68
2023/09/12 06:59:51;;;;;;;49.25;24.15;;;18.60;99.90;;;;;;5040403;28;20040;-67
2023/09/12 07:02:18;;;;;;;51.83;24.45;;;18.60;99.90;;;;;;5059009;28;20051;-67
2023/09/12 07:04:43;;;;;;;45.88;22.63;;;18.70;99.90;;;;;;5060670;28;20036;-68
2023/09/12 07:07:09;;;;;;;48.40;22.00;;;18.70;99.90;;;;;;5040310;28;20059;-67
2023/09/12 07:09:35;;;;;;;44.42;23.40;;;18.70;99.90;;;;;;5064973;28;20032;-67
2023/09/12 07:12:00;;;;;;;50.03;22.75;;;18.80;99.90;;;;;;5063399;28;20046;-73
2023/09/12 07:14:26;;;;;;;46.42;21.75;;;18.80;99.90;;;;;;5044646;28;20398;-67
2023/09/12 07:16:52;;;;;;;46.45;23.98;;;18.80;99.90;;;;;;5063944;28;20045;-68
2023/09/12 07:19:17;;;;;;;48.75;24.30;;;18.90;99.90;;;;;;5064135;28;20044;-68
2023/09/12 07:21:43;;;;;;;49.08;24.00;;;18.90;99.90;;;;;;5063446;28;21097;-68
2023/09/12 07:24:09;;;;;;;45.53;23.27;;;18.90;99.90;;;;;;5062706;28;20122;-68
2023/09/12 07:26:35;;;;;;;50.22;22.70;;;18.90;99.90;;;;;;5039349;28;20094;-68
2023/09/12 07:29:02;;;;;;;48.15;23.83;;;18.90;99.90;;;;;;5064884;28;20094;-68
2023/09/12 07:31:28;;;;;;;49.42;23.45;;;18.90;99.90;;;;;;5058528;28;20398;-68
2023/09/12 07:33:54;;;;;;;50.00;22.50;;;18.90;99.90;;;;;;5043653;28;20076;-69
2023/09/12 07:36:19;;;;;;;50.00;23.58;;;18.90;99.90;;;;;;5061654;28;20135;-68
2023/09/12 07:38:47;;;;;;;46.35;22.35;;;19.00;99.90;;;;;;5062672;28;20048;-69
2023/09/12 07:41:12;;;;;;;45.70;22.98;;;19.00;99.90;;;;;;5043899;28;20065;-68
2023/09/12 07:43:38;;;;;;;46.50;23.80;;;18.90;99.90;;;;;;5044003;28;20090;-68
2023/09/12 07:46:04;;;;;;;51.30;24.23;;;19.00;99.90;;;;;;5058074;28;20064;-68
2023/09/12 07:48:30;;;;;;;52.13;23.77;;;19.10;99.90;;;;;;5039942;28;20040;-68
2023/09/12 07:50:55;;;;;;;52.15;24.38;;;19.10;99.90;;;;;;5060153;28;20041;-68
2023/09/12 07:53:22;;;;;;;52.63;25.02;;;19.20;99.90;;;;;;5041971;28;20209;-68
2023/09/12 07:55:48;;;;;;;49.60;23.92;;;19.20;99.90;;;;;;5062061;28;20353;-68
2023/09/12 07:58:21;;;;;;;47.38;24.10;;;19.30;99.90;;;;;;5045431;28;20048;-67
2023/09/12 08:00:47;;;;;;;45.85;23.83;;;19.30;99.90;;;;;;5044870;28;20086;-69
2023/09/12 08:03:13;;;;;;;44.53;23.48;;;19.30;99.90;;;;;;5063712;28;20037;-68
2023/09/12 08:05:38;;;;;;;48.15;23.95;;;19.40;99.90;;;;;;5063972;28;20131;-69
2023/09/12 08:08:04;;;;;;;56.55;25.13;;;19.50;99.90;;;;;;5066087;28;20409;-68
2023/09/12 08:10:30;;;;;;;49.15;23.95;;;19.60;99.90;;;;;;5062934;28;20109;-68
2023/09/12 08:12:56;;;;;;;48.28;23.10;;;19.60;99.90;;;;;;5060854;28;20302;-68
2023/09/12 08:15:21;;;;;;;47.08;22.10;;;19.60;99.90;;;;;;5046706;28;20490;-67
2023/09/12 08:17:51;;;;;;;47.42;23.08;;;19.70;99.90;;;;;;5064358;28;20394;-69
2023/09/12 08:20:20;;;;;;;46.42;21.80;;;19.70;99.90;;;;;;5053059;28;20418;-67
2023/09/12 08:22:46;;;;;;;43.47;21.90;;;19.80;99.90;;;;;;5065220;28;20036;-68
2023/09/12 08:25:14;;;;;;;47.65;24.25;;;19.80;99.90;;;;;;5041048;28;20044;-68
2023/09/12 08:27:39;;;;;;;48.38;23.00;;;19.80;99.90;;;;;;5065970;28;20577;-68
2023/09/12 08:30:06;;;;;;;52.22;24.05;;;19.80;99.90;;;;;;5044143;28;20040;-68
2023/09/12 08:32:31;;;;;;;;;;;19.80;99.90;;;;;;5043812;28;20040;-69
2023/09/12 08:34:57;;;;;;;47.03;23.65;;;19.90;99.90;;;;;;5060124;28;20267;-68
2023/09/12 08:37:23;;;;;;;49.40;25.17;;;19.90;99.90;;;;;;5060688;28;20090;-69
2023/09/12 08:39:48;;;;;;;49.97;25.08;;;19.90;99.90;;;;;;5042021;28;20162;-68
2023/09/12 08:42:16;;;;;;;48.80;24.25;;;19.90;99.90;;;;;;5047437;28;20044;-69
2023/09/12 08:44:42;;;;;;;51.63;24.27;;;19.90;99.90;;;;;;5051509;28;20462;-69
2023/09/12 08:47:12;;;;;;;49.42;25.63;;;19.90;99.90;;;;;;5056809;28;20530;-69
2023/09/12 08:49:38;;;;;;;51.45;23.95;;;20.00;99.90;;;;;;5040880;28;20068;-68
2023/09/12 08:52:07;;;;;;;47.45;22.27;;;20.10;99.90;;;;;;5059921;28;20033;-69
2023/09/12 08:54:33;;;;;;;55.80;24.92;;;20.10;99.90;;;;;;5063565;28;20051;-69
2023/09/12 08:57:04;;;;;;;48.42;24.70;;;20.20;99.90;;;;;;5045556;28;20098;-69
2023/09/12 08:59:33;;;;;;;45.83;23.65;;;20.20;99.90;;;;;;5042419;28;20510;-69
2023/09/12 09:02:00;;;;;;;47.67;23.75;;;20.30;99.90;;;;;;5043717;28;20116;-68
2023/09/12 09:04:29;;;;;;;48.28;23.23;;;20.30;99.90;;;;;;5045342;28;20052;-68
2023/09/12 09:06:58;;;;;;;49.63;25.77;;;20.40;99.90;;;;;;5042955;28;20413;-69
2023/09/12 09:09:28;;;;;;;44.72;24.08;;;20.40;99.90;;;;;;5062829;28;20054;-69
2023/09/12 09:11:54;;;;;;;48.03;23.15;;;20.40;99.90;;;;;;5043007;28;20041;-69
2023/09/12 09:14:19;;;;;;;;;;;20.60;99.90;;;;;;5060373;28;20438;-69
2023/09/12 09:16:45;;;;;;;47.42;23.33;;;20.60;99.90;;;;;;5045236;28;20007;-69
2023/09/12 09:19:11;;;;;;;43.58;22.65;;;20.70;99.90;;;;;;5045078;28;20052;-69
2023/09/12 09:21:40;;;;;;;44.38;23.15;;;20.80;99.90;;;;;;5102201;22;20153;-69
2023/09/12 09:24:11;;;;;;;45.08;23.85;;;20.80;99.90;;;;;;5058196;28;20068;-69
2023/09/12 09:26:45;;;;;;;39.97;20.88;;;20.80;99.90;;;;;;5059755;28;20047;-69
2023/09/12 09:29:14;;;;;;;43.65;21.65;;;20.90;99.90;;;;;;5046340;28;20488;-69
2023/09/12 09:31:45;;;;;;;43.67;21.85;;;21.00;99.90;;;;;;5030848;28;20256;-71
2023/09/12 09:34:15;;;;;;;44.90;22.90;;;21.00;99.90;;;;;;5054345;28;20059;-71
2023/09/12 09:36:42;;;;;;;45.40;22.42;;;21.10;99.90;;;;;;5033118;28;20089;-72
2023/09/12 09:39:09;;;;;;;38.70;21.45;;;21.10;99.90;;;;;;5027737;28;20048;-71
2023/09/12 09:41:35;;;;;;;37.17;19.00;;;21.10;99.90;;;;;;5032615;28;20055;-71
2023/09/12 09:44:01;;;;;;;33.35;19.83;;;21.20;99.90;;;;;;5029391;28;20052;-71
2023/09/12 09:46:27;;;;;;;;;;;21.20;99.90;;;;;;5036657;28;20040;-70
2023/09/12 09:48:53;;;;;;;39.22;19.30;;;21.30;99.90;;;;;;5049687;28;19956;-71
2023/09/12 09:51:19;;;;;;;38.30;19.33;;;21.30;99.90;;;;;;5039441;28;20041;-71
2023/09/12 09:53:44;;;;;;;;;;;21.30;99.90;;;;;;5053577;28;20059;-71
2023/09/12 09:56:13;;;;;;;35.78;18.40;;;21.40;99.90;;;;;;5035256;28;19916;-71
2023/09/12 09:58:52;;;;;;;33.97;19.80;;;21.50;99.90;;;;;;5037589;28;20444;-71
2023/09/12 10:01:20;;;;;;;32.17;17.45;;;21.70;99.90;;;;;;5058527;28;20109;-71
2023/09/12 10:03:49;;;;;;;33.95;19.60;;;21.90;99.90;;;;;;5030901;28;20044;-71
2023/09/12 10:06:19;;;;;;;32.40;17.13;;;22.00;99.90;;;;;;5036155;28;20160;-70
2023/09/12 10:08:50;;;;;;;30.80;16.92;;;22.10;99.90;;;;;;5034451;28;20056;-71
2023/09/12 10:11:17;;;;;;;29.85;17.30;;;22.10;99.90;;;;;;5059094;28;20036;-70
2023/09/12 10:13:51;;;;;;;27.90;16.45;;;22.20;99.90;;;;;;5042313;28;20042;-75
2023/09/12 10:16:20;;;;;;;28.70;15.50;;;22.10;99.90;;;;;;5023182;28;20106;-70
2023/09/12 10:19:10;;;;;;;24.08;13.45;;;22.10;99.90;;;;;;5053974;28;20567;-70
2023/09/12 10:21:41;;;;;;;23.10;11.15;;;22.20;99.90;;;;;;5025401;28;20379;-69
2023/09/12 10:24:08;;;;;;;24.17;11.73;;;22.30;99.90;;;;;;5037122;28;20044;-70
2023/09/12 10:26:34;;;;;;;19.45;11.40;;;22.40;99.90;;;;;;5037651;28;20096;-70
2023/09/12 10:29:02;;;;;;;20.73;11.15;;;22.50;99.90;;;;;;5043243;28;20101;-70
2023/09/12 10:31:28;;;;;;;17.48;10.75;;;22.60;99.90;;;;;;5037977;28;20506;-71
2023/09/12 10:33:54;;;;;;;17.30;8.75;;;22.70;99.90;;;;;;5038170;28;20545;-72
2023/09/12 10:36:20;;;;;;;;;;;22.80;99.90;;;;;;5036241;28;20139;-72
2023/09/12 10:38:49;;;;;;;16.23;9.32;;;22.80;99.90;;;;;;5042432;28;19924;-72
2023/09/12 10:41:15;;;;;;;17.30;9.45;;;22.90;99.90;;;;;;5055470;28;20037;-72
2023/09/12 10:43:46;;;;;;;16.10;10.05;;;22.90;99.90;;;;;;5042998;28;20135;-71
2023/09/12 10:46:12;;;;;;;21.20;10.70;;;22.90;99.90;;;;;;5058336;28;20085;-72
2023/09/12 10:48:41;;;;;;;18.33;9.90;;;22.90;99.90;;;;;;5039191;28;20432;-72
2023/09/12 10:51:10;;;;;;;18.90;9.75;;;23.00;99.90;;;;;;5034796;28;20045;-72
2023/09/12 10:53:35;;;;;;;18.73;10.32;;;23.10;99.90;;;;;;5040881;28;20095;-73
2023/09/12 10:56:14;;;;;;;;;;;23.10;99.90;;;;;;5050207;28;20142;-72
2023/09/12 10:59:09;;;;;;;22.60;11.30;;;23.20;99.90;;;;;;5038503;28;19927;-72
2023/09/12 11:01:36;;;;;;;16.67;10.07;;;23.30;99.90;;;;;;5026012;28;20040;-72
2023/09/12 11:04:20;;;;;;;14.68;9.20;;;23.40;99.90;;;;;;5036012;28;20044;-71
2023/09/12 11:06:47;;;;;;;18.90;10.00;;;23.50;99.90;;;;;;5031680;28;20049;-72
2023/09/12 11:09:23;;;;;;;14.55;7.60;;;23.50;99.90;;;;;;5038171;28;20333;-72
2023/09/12 11:12:17;;;;;;;18.13;8.27;;;23.50;99.90;;;;;;5053081;28;20070;-71
2023/09/12 11:15:06;;;;;;;17.02;8.52;;;23.50;99.90;;;;;;5051993;28;20052;-71
2023/09/12 11:17:37;;;;;;;19.05;8.45;;;23.50;99.90;;;;;;5056371;28;20405;-71
2023/09/12 11:20:12;;;;;;;18.05;9.82;;;23.60;99.90;;;;;;5044805;28;20133;-71
2023/09/12 11:22:43;;;;;;;15.90;9.18;;;23.70;99.90;;;;;;5038273;28;20052;-71
2023/09/12 11:25:22;;;;;;;19.15;9.65;;;23.70;99.90;;;;;;5041116;28;20044;-71
2023/09/12 11:27:51;;;;;;;21.83;10.90;;;23.70;99.90;;;;;;5019052;28;20040;-72
2023/09/12 11:30:20;;;;;;;19.40;10.35;;;23.90;99.90;;;;;;5027937;28;20428;-72
2023/09/12 11:32:48;;;;;;;20.13;9.60;;;24.00;99.90;;;;;;5042921;28;20037;-72
2023/09/12 11:35:14;;;;;;;13.52;9.00;;;24.00;99.90;;;;;;5041292;28;20036;-71
2023/09/12 11:37:48;;;;;;;13.77;8.68;;;24.00;99.90;;;;;;5041426;28;20036;-71
2023/09/12 11:40:14;;;;;;;13.15;7.82;;;23.80;99.90;;;;;;5057581;28;20036;-72
2023/09/12 11:42:41;;;;;;;16.42;6.97;;;23.80;99.90;;;;;;5061693;28;20757;-72
2023/09/12 11:45:10;;;;;;;11.18;6.00;;;23.70;99.90;;;;;;5036208;28;20045;-71
2023/09/12 11:47:43;;;;;;;9.80;5.82;;;23.70;99.90;;;;;;5053023;28;20036;-71
2023/09/12 11:50:25;;;;;;;13.40;6.70;;;23.70;99.90;;;;;;5034747;28;20052;-71
2023/09/12 11:53:08;;;;;;;13.20;7.07;;;23.70;99.90;;;;;;5045024;28;20048;-72
2023/09/12 11:55:45;;;;;;;12.07;6.53;;;23.60;99.90;;;;;;5040293;28;20174;-71
2023/09/12 11:58:12;;;;;;;15.32;7.35;;;23.50;99.90;;;;;;5018765;28;20439;-71
2023/09/12 12:00:52;;;;;;;13.38;7.15;;;23.50;99.90;;;;;;5040194;28;20040;-72
2023/09/12 12:03:21;;;;;;;11.38;7.40;;;23.50;99.90;;;;;;5039907;28;20043;-71
2023/09/12 12:05:47;;;;;;;12.98;7.47;;;23.50;99.90;;;;;;5038202;28;20087;-72
2023/09/12 12:08:14;;;;;;;17.42;7.60;;;23.50;99.90;;;;;;5042756;28;20398;-72
2023/09/12 12:10:40;;;;;;;17.27;8.60;;;23.50;99.90;;;;;;5039457;28;20047;-71
2023/09/12 12:13:17;;;;;;;13.18;7.82;;;23.40;99.90;;;;;;5036949;28;20056;-72
2023/09/12 12:15:42;;;;;;;14.48;8.27;;;23.50;99.90;;;;;;5055918;28;20037;-72
2023/09/12 12:18:08;;;;;;;;;;;23.40;99.90;;;;;;5057370;28;20044;-71
2023/09/12 12:20:34;;;;;;;12.32;7.88;;;23.40;99.90;;;;;;5043532;28;19917;-72
2023/09/12 12:22:59;;;;;;;12.60;7.57;;;23.40;99.90;;;;;;5058239;28;20062;-72
2023/09/12 12:25:25;;;;;;;10.90;6.28;;;23.30;99.90;;;;;;5050792;28;20040;-71
2023/09/12 12:27:51;;;;;;;;;;;23.30;99.90;;;;;;5034038;28;20043;-71
2023/09/12 12:30:18;;;;;;;11.82;6.68;;;23.20;99.90;;;;;;5044042;28;20018;-71
2023/09/12 12:32:51;;;;;;;10.95;5.97;;;23.10;99.90;;;;;;5052559;28;20033;-71
2023/09/12 12:35:21;;;;;;;15.40;6.63;;;23.20;99.90;;;;;;5056744;28;20082;-71